sensor_id;sensor_type;location;lat;lon;timestamp;temperature;humidity
48208;DHT22;33997;53.278;9.708;2023-06-10T00:01:41;14.10;92.20
48208;DHT22;33997;53.278;9.708;2023-06-10T00:04:06;14.10;92.50
48208;DHT22;33997;53.278;9.708;2023-06-10T00:06:32;14.00;92.50
48208;DHT22;33997;53.278;9.708;2023-06-10T00:09:04;14.00;92.80
48208;DHT22;33997;53.278;9.708;2023-06-10T00:11:33;14.00;92.80
48208;DHT22;33997;53.278;9.708;2023-06-10T00:13:59;14.00;92.70
48208;DHT22;33997;53.278;9.708;2023-06-10T00:16:25;13.90;92.80
48208;DHT22;33997;53.278;9.708;2023-06-10T00:18:51;13.80;93.20
48208;DHT22;33997;53.278;9.708;2023-06-10T00:21:17;13.80;93.50
48208;DHT22;33997;53.278;9.708;2023-06-10T00:23:44;13.80;93.30
48208;DHT22;33997;53.278;9.708;2023-06-10T00:26:09;13.80;93.40
48208;DHT22;33997;53.278;9.708;2023-06-10T00:28:35;13.70;93.30
48208;DHT22;33997;53.278;9.708;2023-06-10T00:31:01;13.60;93.30
48208;DHT22;33997;53.278;9.708;2023-06-10T00:33:26;13.60;93.60
48208;DHT22;33997;53.278;9.708;2023-06-10T00:35:53;13.60;93.60
48208;DHT22;33997;53.278;9.708;2023-06-10T00:38:18;13.50;94.20
48208;DHT22;33997;53.278;9.708;2023-06-10T00:40:44;13.50;94.20
48208;DHT22;33997;53.278;9.708;2023-06-10T00:43:09;13.50;94.20
48208;DHT22;33997;53.278;9.708;2023-06-10T00:45:35;13.50;94.40
48208;DHT22;33997;53.278;9.708;2023-06-10T00:48:01;13.60;94.70
48208;DHT22;33997;53.278;9.708;2023-06-10T00:50:27;13.80;94.70
48208;DHT22;33997;53.278;9.708;2023-06-10T00:52:53;14.00;94.70
48208;DHT22;33997;53.278;9.708;2023-06-10T00:55:20;14.00;94.40
48208;DHT22;33997;53.278;9.708;2023-06-10T00:57:46;14.10;94.00
48208;DHT22;33997;53.278;9.708;2023-06-10T01:00:14;14.20;94.00
48208;DHT22;33997;53.278;9.708;2023-06-10T01:02:40;14.10;93.40
48208;DHT22;33997;53.278;9.708;2023-06-10T01:05:06;14.00;93.30
48208;DHT22;33997;53.278;9.708;2023-06-10T01:08:13;14.00;93.10
48208;DHT22;33997;53.278;9.708;2023-06-10T01:10:50;13.80;93.30
48208;DHT22;33997;53.278;9.708;2023-06-10T01:13:17;13.70;93.10
48208;DHT22;33997;53.278;9.708;2023-06-10T01:15:43;13.60;93.10
48208;DHT22;33997;53.278;9.708;2023-06-10T01:18:10;13.50;93.10
48208;DHT22;33997;53.278;9.708;2023-06-10T01:20:37;13.40;93.40
48208;DHT22;33997;53.278;9.708;2023-06-10T01:23:07;13.30;93.20
48208;DHT22;33997;53.278;9.708;2023-06-10T01:25:34;13.20;93.40
48208;DHT22;33997;53.278;9.708;2023-06-10T01:33:35;13.00;93.30
48208;DHT22;33997;53.278;9.708;2023-06-10T01:36:02;13.00;93.60
48208;DHT22;33997;53.278;9.708;2023-06-10T01:38:32;12.90;93.70
48208;DHT22;33997;53.278;9.708;2023-06-10T01:40:58;12.80;93.60
48208;DHT22;33997;53.278;9.708;2023-06-10T01:43:24;12.80;93.90
48208;DHT22;33997;53.278;9.708;2023-06-10T01:45:49;12.70;94.00
48208;DHT22;33997;53.278;9.708;2023-06-10T01:48:15;12.60;94.00
48208;DHT22;33997;53.278;9.708;2023-06-10T01:50:40;12.60;94.20
48208;DHT22;33997;53.278;9.708;2023-06-10T01:53:06;12.60;93.90
48208;DHT22;33997;53.278;9.708;2023-06-10T01:55:32;12.50;94.10
48208;DHT22;33997;53.278;9.708;2023-06-10T01:57:57;12.50;94.20
48208;DHT22;33997;53.278;9.708;2023-06-10T02:00:22;12.50;94.20
48208;DHT22;33997;53.278;9.708;2023-06-10T02:02:48;12.50;94.00
48208;DHT22;33997;53.278;9.708;2023-06-10T02:05:13;12.40;93.90
48208;DHT22;33997;53.278;9.708;2023-06-10T02:07:39;12.30;93.80
48208;DHT22;33997;53.278;9.708;2023-06-10T02:10:06;12.30;94.00
48208;DHT22;33997;53.278;9.708;2023-06-10T02:12:31;12.30;94.30
48208;DHT22;33997;53.278;9.708;2023-06-10T02:14:57;12.40;94.30
48208;DHT22;33997;53.278;9.708;2023-06-10T02:17:22;12.60;94.20
48208;DHT22;33997;53.278;9.708;2023-06-10T02:19:48;12.70;94.10
48208;DHT22;33997;53.278;9.708;2023-06-10T02:22:23;12.80;93.70
48208;DHT22;33997;53.278;9.708;2023-06-10T02:24:48;12.90;93.30
48208;DHT22;33997;53.278;9.708;2023-06-10T02:27:17;12.80;92.90
48208;DHT22;33997;53.278;9.708;2023-06-10T02:29:43;12.90;92.80
48208;DHT22;33997;53.278;9.708;2023-06-10T02:32:09;13.00;92.50
48208;DHT22;33997;53.278;9.708;2023-06-10T02:34:35;13.00;92.30
48208;DHT22;33997;53.278;9.708;2023-06-10T02:37:02;13.10;92.00
48208;DHT22;33997;53.278;9.708;2023-06-10T02:39:28;13.00;91.90
48208;DHT22;33997;53.278;9.708;2023-06-10T02:41:53;13.10;91.70
48208;DHT22;33997;53.278;9.708;2023-06-10T02:44:19;13.10;91.60
48208;DHT22;33997;53.278;9.708;2023-06-10T02:46:45;13.10;91.60
48208;DHT22;33997;53.278;9.708;2023-06-10T02:49:11;13.20;91.40
48208;DHT22;33997;53.278;9.708;2023-06-10T02:51:37;13.10;91.10
48208;DHT22;33997;53.278;9.708;2023-06-10T02:54:02;13.10;91.00
48208;DHT22;33997;53.278;9.708;2023-06-10T02:56:28;13.10;90.90
48208;DHT22;33997;53.278;9.708;2023-06-10T02:58:54;13.10;90.90
48208;DHT22;33997;53.278;9.708;2023-06-10T03:01:19;13.20;90.70
48208;DHT22;33997;53.278;9.708;2023-06-10T03:03:45;13.20;90.70
48208;DHT22;33997;53.278;9.708;2023-06-10T03:06:12;13.20;90.50
48208;DHT22;33997;53.278;9.708;2023-06-10T03:08:38;13.00;90.50
48208;DHT22;33997;53.278;9.708;2023-06-10T03:11:03;13.10;90.70
48208;DHT22;33997;53.278;9.708;2023-06-10T03:13:29;13.10;90.40
48208;DHT22;33997;53.278;9.708;2023-06-10T03:15:54;13.10;90.50
48208;DHT22;33997;53.278;9.708;2023-06-10T03:18:20;13.10;90.40
48208;DHT22;33997;53.278;9.708;2023-06-10T03:20:45;13.10;90.30
48208;DHT22;33997;53.278;9.708;2023-06-10T03:23:11;13.10;90.20
48208;DHT22;33997;53.278;9.708;2023-06-10T03:25:37;13.10;90.30
48208;DHT22;33997;53.278;9.708;2023-06-10T03:28:02;13.10;90.30
48208;DHT22;33997;53.278;9.708;2023-06-10T03:30:29;13.10;90.30
48208;DHT22;33997;53.278;9.708;2023-06-10T03:32:54;13.10;90.10
48208;DHT22;33997;53.278;9.708;2023-06-10T03:35:20;13.10;90.10
48208;DHT22;33997;53.278;9.708;2023-06-10T03:37:45;13.20;89.90
48208;DHT22;33997;53.278;9.708;2023-06-10T03:40:11;13.20;89.80
48208;DHT22;33997;53.278;9.708;2023-06-10T03:42:37;13.20;89.60
48208;DHT22;33997;53.278;9.708;2023-06-10T03:45:03;13.10;89.90
48208;DHT22;33997;53.278;9.708;2023-06-10T03:47:36;13.10;89.90
48208;DHT22;33997;53.278;9.708;2023-06-10T03:50:06;13.20;89.70
48208;DHT22;33997;53.278;9.708;2023-06-10T03:52:32;13.10;89.80
48208;DHT22;33997;53.278;9.708;2023-06-10T03:54:57;13.30;89.90
48208;DHT22;33997;53.278;9.708;2023-06-10T03:57:23;13.20;89.60
48208;DHT22;33997;53.278;9.708;2023-06-10T03:59:48;13.40;89.50
48208;DHT22;33997;53.278;9.708;2023-06-10T04:02:14;13.50;89.20
48208;DHT22;33997;53.278;9.708;2023-06-10T04:04:40;13.50;89.20
48208;DHT22;33997;53.278;9.708;2023-06-10T04:07:06;13.50;88.80
48208;DHT22;33997;53.278;9.708;2023-06-10T04:09:31;13.60;88.80
48208;DHT22;33997;53.278;9.708;2023-06-10T04:11:57;13.60;88.50
48208;DHT22;33997;53.278;9.708;2023-06-10T04:14:22;13.50;88.60
48208;DHT22;33997;53.278;9.708;2023-06-10T04:16:49;13.50;89.00
48208;DHT22;33997;53.278;9.708;2023-06-10T04:19:15;13.50;88.80
48208;DHT22;33997;53.278;9.708;2023-06-10T04:21:42;13.50;88.50
48208;DHT22;33997;53.278;9.708;2023-06-10T04:24:07;13.50;88.70
48208;DHT22;33997;53.278;9.708;2023-06-10T04:26:34;13.50;88.60
48208;DHT22;33997;53.278;9.708;2023-06-10T04:29:00;13.70;88.40
48208;DHT22;33997;53.278;9.708;2023-06-10T04:31:25;13.70;88.30
48208;DHT22;33997;53.278;9.708;2023-06-10T04:33:51;13.70;88.10
48208;DHT22;33997;53.278;9.708;2023-06-10T04:36:16;13.80;87.80
48208;DHT22;33997;53.278;9.708;2023-06-10T04:38:42;13.80;87.50
48208;DHT22;33997;53.278;9.708;2023-06-10T04:41:08;13.80;87.40
48208;DHT22;33997;53.278;9.708;2023-06-10T04:43:33;13.70;87.70
48208;DHT22;33997;53.278;9.708;2023-06-10T04:45:59;13.70;87.70
48208;DHT22;33997;53.278;9.708;2023-06-10T04:48:24;13.70;88.00
48208;DHT22;33997;53.278;9.708;2023-06-10T04:50:50;14.00;87.70
48208;DHT22;33997;53.278;9.708;2023-06-10T04:53:16;14.00;87.60
48208;DHT22;33997;53.278;9.708;2023-06-10T04:55:42;14.00;86.70
48208;DHT22;33997;53.278;9.708;2023-06-10T04:58:07;14.10;87.20
48208;DHT22;33997;53.278;9.708;2023-06-10T05:00:33;14.10;87.00
48208;DHT22;33997;53.278;9.708;2023-06-10T05:02:58;14.20;86.80
48208;DHT22;33997;53.278;9.708;2023-06-10T05:05:24;14.30;86.60
48208;DHT22;33997;53.278;9.708;2023-06-10T05:07:49;14.50;86.40
48208;DHT22;33997;53.278;9.708;2023-06-10T05:10:14;14.60;86.40
48208;DHT22;33997;53.278;9.708;2023-06-10T05:12:40;14.50;86.10
48208;DHT22;33997;53.278;9.708;2023-06-10T05:15:07;14.40;85.40
48208;DHT22;33997;53.278;9.708;2023-06-10T05:17:33;14.40;86.00
48208;DHT22;33997;53.278;9.708;2023-06-10T05:19:58;14.40;85.50
48208;DHT22;33997;53.278;9.708;2023-06-10T05:22:24;14.60;85.60
48208;DHT22;33997;53.278;9.708;2023-06-10T05:24:50;14.70;85.20
48208;DHT22;33997;53.278;9.708;2023-06-10T05:27:16;14.70;84.90
48208;DHT22;33997;53.278;9.708;2023-06-10T05:29:42;14.70;84.40
48208;DHT22;33997;53.278;9.708;2023-06-10T05:32:07;14.80;84.70
48208;DHT22;33997;53.278;9.708;2023-06-10T05:34:33;14.90;84.60
48208;DHT22;33997;53.278;9.708;2023-06-10T05:36:59;15.00;84.30
48208;DHT22;33997;53.278;9.708;2023-06-10T05:39:24;15.00;84.30
48208;DHT22;33997;53.278;9.708;2023-06-10T05:41:50;15.00;84.70
48208;DHT22;33997;53.278;9.708;2023-06-10T05:44:15;14.90;84.50
48208;DHT22;33997;53.278;9.708;2023-06-10T05:46:41;14.80;84.60
48208;DHT22;33997;53.278;9.708;2023-06-10T05:49:06;15.00;84.30
48208;DHT22;33997;53.278;9.708;2023-06-10T05:51:32;15.30;84.00
48208;DHT22;33997;53.278;9.708;2023-06-10T05:53:57;15.20;83.80
48208;DHT22;33997;53.278;9.708;2023-06-10T05:56:23;15.30;82.90
48208;DHT22;33997;53.278;9.708;2023-06-10T05:58:49;15.30;83.10
48208;DHT22;33997;53.278;9.708;2023-06-10T06:01:15;15.50;82.60
48208;DHT22;33997;53.278;9.708;2023-06-10T06:03:40;15.70;82.30
48208;DHT22;33997;53.278;9.708;2023-06-10T06:06:06;15.50;81.80
48208;DHT22;33997;53.278;9.708;2023-06-10T06:08:32;15.40;82.80
48208;DHT22;33997;53.278;9.708;2023-06-10T06:10:57;15.60;82.80
48208;DHT22;33997;53.278;9.708;2023-06-10T06:13:23;15.70;82.30
48208;DHT22;33997;53.278;9.708;2023-06-10T06:15:49;15.70;82.30
48208;DHT22;33997;53.278;9.708;2023-06-10T06:18:15;16.00;82.00
48208;DHT22;33997;53.278;9.708;2023-06-10T06:20:40;16.10;80.30
48208;DHT22;33997;53.278;9.708;2023-06-10T06:23:06;16.30;81.30
48208;DHT22;33997;53.278;9.708;2023-06-10T06:25:33;16.00;80.90
48208;DHT22;33997;53.278;9.708;2023-06-10T06:28:01;16.10;81.40
48208;DHT22;33997;53.278;9.708;2023-06-10T06:30:26;16.20;80.80
48208;DHT22;33997;53.278;9.708;2023-06-10T06:32:51;16.30;80.70
48208;DHT22;33997;53.278;9.708;2023-06-10T06:35:17;16.40;81.00
48208;DHT22;33997;53.278;9.708;2023-06-10T06:37:42;16.20;80.30
48208;DHT22;33997;53.278;9.708;2023-06-10T06:40:08;16.50;80.10
48208;DHT22;33997;53.278;9.708;2023-06-10T06:42:34;16.80;80.30
48208;DHT22;33997;53.278;9.708;2023-06-10T06:44:59;17.10;79.20
48208;DHT22;33997;53.278;9.708;2023-06-10T06:47:25;17.20;77.70
48208;DHT22;33997;53.278;9.708;2023-06-10T06:49:51;17.30;79.50
48208;DHT22;33997;53.278;9.708;2023-06-10T06:52:17;17.50;79.10
48208;DHT22;33997;53.278;9.708;2023-06-10T06:54:43;17.00;77.50
48208;DHT22;33997;53.278;9.708;2023-06-10T06:57:08;17.20;78.30
48208;DHT22;33997;53.278;9.708;2023-06-10T06:59:34;17.10;77.90
48208;DHT22;33997;53.278;9.708;2023-06-10T07:01:59;17.10;79.30
48208;DHT22;33997;53.278;9.708;2023-06-10T07:04:25;17.10;78.00
48208;DHT22;33997;53.278;9.708;2023-06-10T07:06:50;17.20;77.30
48208;DHT22;33997;53.278;9.708;2023-06-10T07:09:16;17.50;77.00
48208;DHT22;33997;53.278;9.708;2023-06-10T07:11:42;17.80;77.40
48208;DHT22;33997;53.278;9.708;2023-06-10T07:14:07;17.80;77.10
48208;DHT22;33997;53.278;9.708;2023-06-10T07:16:33;17.80;76.20
48208;DHT22;33997;53.278;9.708;2023-06-10T07:18:58;18.00;75.80
48208;DHT22;33997;53.278;9.708;2023-06-10T07:21:24;18.20;75.00
48208;DHT22;33997;53.278;9.708;2023-06-10T07:23:49;18.30;74.00
48208;DHT22;33997;53.278;9.708;2023-06-10T07:26:17;18.80;75.90
48208;DHT22;33997;53.278;9.708;2023-06-10T07:28:43;19.00;72.30
48208;DHT22;33997;53.278;9.708;2023-06-10T07:31:08;18.70;73.30
48208;DHT22;33997;53.278;9.708;2023-06-10T07:33:34;18.60;73.50
48208;DHT22;33997;53.278;9.708;2023-06-10T07:36:00;19.20;73.40
48208;DHT22;33997;53.278;9.708;2023-06-10T07:38:26;19.20;71.80
48208;DHT22;33997;53.278;9.708;2023-06-10T07:40:52;19.50;72.90
48208;DHT22;33997;53.278;9.708;2023-06-10T07:43:17;19.60;69.90
48208;DHT22;33997;53.278;9.708;2023-06-10T07:45:43;19.60;70.50
48208;DHT22;33997;53.278;9.708;2023-06-10T07:48:09;19.50;70.00
48208;DHT22;33997;53.278;9.708;2023-06-10T07:50:34;20.00;71.00
48208;DHT22;33997;53.278;9.708;2023-06-10T07:53:00;20.00;70.50
48208;DHT22;33997;53.278;9.708;2023-06-10T07:55:26;20.20;70.90
48208;DHT22;33997;53.278;9.708;2023-06-10T07:57:52;20.50;69.00
48208;DHT22;33997;53.278;9.708;2023-06-10T08:00:18;20.60;68.40
48208;DHT22;33997;53.278;9.708;2023-06-10T08:02:44;20.70;68.80
48208;DHT22;33997;53.278;9.708;2023-06-10T08:05:09;21.00;66.60
48208;DHT22;33997;53.278;9.708;2023-06-10T08:07:35;21.50;66.30
48208;DHT22;33997;53.278;9.708;2023-06-10T08:10:01;21.70;65.10
48208;DHT22;33997;53.278;9.708;2023-06-10T08:12:26;21.90;65.40
48208;DHT22;33997;53.278;9.708;2023-06-10T08:14:52;21.80;63.70
48208;DHT22;33997;53.278;9.708;2023-06-10T08:17:17;22.00;65.30
48208;DHT22;33997;53.278;9.708;2023-06-10T08:19:43;21.70;64.50
48208;DHT22;33997;53.278;9.708;2023-06-10T08:22:08;22.20;64.40
48208;DHT22;33997;53.278;9.708;2023-06-10T08:24:35;22.40;63.50
48208;DHT22;33997;53.278;9.708;2023-06-10T08:27:00;22.70;61.60
48208;DHT22;33997;53.278;9.708;2023-06-10T08:29:26;22.60;60.70
48208;DHT22;33997;53.278;9.708;2023-06-10T08:31:51;22.50;60.40
48208;DHT22;33997;53.278;9.708;2023-06-10T08:34:17;22.50;61.50
48208;DHT22;33997;53.278;9.708;2023-06-10T08:36:43;22.70;61.00
48208;DHT22;33997;53.278;9.708;2023-06-10T08:39:10;22.60;59.60
48208;DHT22;33997;53.278;9.708;2023-06-10T08:41:39;23.00;61.90
48208;DHT22;33997;53.278;9.708;2023-06-10T08:44:10;23.00;59.50
48208;DHT22;33997;53.278;9.708;2023-06-10T08:46:38;23.20;60.90
48208;DHT22;33997;53.278;9.708;2023-06-10T08:49:07;23.30;59.20
48208;DHT22;33997;53.278;9.708;2023-06-10T08:51:34;23.20;60.00
48208;DHT22;33997;53.278;9.708;2023-06-10T08:54:04;22.60;59.40
48208;DHT22;33997;53.278;9.708;2023-06-10T08:56:39;23.30;57.70
48208;DHT22;33997;53.278;9.708;2023-06-10T08:59:05;23.30;57.80
48208;DHT22;33997;53.278;9.708;2023-06-10T09:01:31;23.70;58.60
48208;DHT22;33997;53.278;9.708;2023-06-10T09:03:58;23.80;58.50
48208;DHT22;33997;53.278;9.708;2023-06-10T09:06:25;24.00;56.20
48208;DHT22;33997;53.278;9.708;2023-06-10T09:08:50;24.40;56.60
48208;DHT22;33997;53.278;9.708;2023-06-10T09:11:16;24.10;58.40
48208;DHT22;33997;53.278;9.708;2023-06-10T09:13:42;24.40;55.90
48208;DHT22;33997;53.278;9.708;2023-06-10T09:16:08;24.50;56.60
48208;DHT22;33997;53.278;9.708;2023-06-10T09:18:34;25.00;55.60
48208;DHT22;33997;53.278;9.708;2023-06-10T09:21:00;24.80;55.20
48208;DHT22;33997;53.278;9.708;2023-06-10T09:23:26;24.80;55.60
48208;DHT22;33997;53.278;9.708;2023-06-10T09:25:58;25.30;55.90
48208;DHT22;33997;53.278;9.708;2023-06-10T09:28:24;24.90;53.40
48208;DHT22;33997;53.278;9.708;2023-06-10T09:30:50;25.00;53.90
48208;DHT22;33997;53.278;9.708;2023-06-10T09:33:26;25.00;55.60
48208;DHT22;33997;53.278;9.708;2023-06-10T09:35:52;25.20;54.30
48208;DHT22;33997;53.278;9.708;2023-06-10T09:38:21;24.80;54.90
48208;DHT22;33997;53.278;9.708;2023-06-10T09:40:51;25.40;52.40
48208;DHT22;33997;53.278;9.708;2023-06-10T09:43:16;25.90;54.10
48208;DHT22;33997;53.278;9.708;2023-06-10T09:45:42;25.90;52.40
48208;DHT22;33997;53.278;9.708;2023-06-10T09:48:08;26.20;52.90
48208;DHT22;33997;53.278;9.708;2023-06-10T09:50:34;26.40;50.00
48208;DHT22;33997;53.278;9.708;2023-06-10T09:53:03;26.00;49.80
48208;DHT22;33997;53.278;9.708;2023-06-10T09:55:33;26.00;51.10
48208;DHT22;33997;53.278;9.708;2023-06-10T09:57:59;26.40;48.70
48208;DHT22;33997;53.278;9.708;2023-06-10T10:00:25;26.40;49.20
48208;DHT22;33997;53.278;9.708;2023-06-10T10:02:52;26.00;48.60
48208;DHT22;33997;53.278;9.708;2023-06-10T10:05:20;26.50;49.70
48208;DHT22;33997;53.278;9.708;2023-06-10T10:07:46;26.50;48.20
48208;DHT22;33997;53.278;9.708;2023-06-10T10:10:13;26.90;49.40
48208;DHT22;33997;53.278;9.708;2023-06-10T10:12:40;27.00;48.90
48208;DHT22;33997;53.278;9.708;2023-06-10T10:15:10;27.30;47.20
48208;DHT22;33997;53.278;9.708;2023-06-10T10:17:51;27.60;46.40
48208;DHT22;33997;53.278;9.708;2023-06-10T10:20:22;27.60;46.60
48208;DHT22;33997;53.278;9.708;2023-06-10T10:22:50;27.30;47.50
48208;DHT22;33997;53.278;9.708;2023-06-10T10:25:28;27.70;46.60
48208;DHT22;33997;53.278;9.708;2023-06-10T10:28:08;27.80;46.20
48208;DHT22;33997;53.278;9.708;2023-06-10T10:30:39;28.40;45.30
48208;DHT22;33997;53.278;9.708;2023-06-10T10:33:09;28.40;45.70
48208;DHT22;33997;53.278;9.708;2023-06-10T10:35:36;28.40;44.50
48208;DHT22;33997;53.278;9.708;2023-06-10T10:38:03;27.80;44.80
48208;DHT22;33997;53.278;9.708;2023-06-10T10:40:29;27.60;45.60
48208;DHT22;33997;53.278;9.708;2023-06-10T10:42:56;27.90;44.40
48208;DHT22;33997;53.278;9.708;2023-06-10T10:45:22;28.40;44.80
48208;DHT22;33997;53.278;9.708;2023-06-10T10:47:52;28.90;44.80
48208;DHT22;33997;53.278;9.708;2023-06-10T10:50:19;29.00;43.90
48208;DHT22;33997;53.278;9.708;2023-06-10T10:52:56;28.90;44.00
48208;DHT22;33997;53.278;9.708;2023-06-10T10:55:26;28.90;44.60
48208;DHT22;33997;53.278;9.708;2023-06-10T10:57:59;29.10;45.80
48208;DHT22;33997;53.278;9.708;2023-06-10T11:00:32;29.10;44.50
48208;DHT22;33997;53.278;9.708;2023-06-10T11:03:07;29.50;42.40
48208;DHT22;33997;53.278;9.708;2023-06-10T11:05:43;29.20;43.60
48208;DHT22;33997;53.278;9.708;2023-06-10T11:08:10;29.50;42.30
48208;DHT22;33997;53.278;9.708;2023-06-10T11:10:38;29.40;41.50
48208;DHT22;33997;53.278;9.708;2023-06-10T11:13:09;29.70;42.30
48208;DHT22;33997;53.278;9.708;2023-06-10T11:15:39;29.50;43.80
48208;DHT22;33997;53.278;9.708;2023-06-10T11:18:10;29.60;41.20
48208;DHT22;33997;53.278;9.708;2023-06-10T11:26:17;30.00;40.80
48208;DHT22;33997;53.278;9.708;2023-06-10T11:31:22;30.80;41.60
48208;DHT22;33997;53.278;9.708;2023-06-10T11:33:48;30.50;39.80
48208;DHT22;33997;53.278;9.708;2023-06-10T11:36:17;30.90;41.30
48208;DHT22;33997;53.278;9.708;2023-06-10T11:38:42;30.20;39.90
48208;DHT22;33997;53.278;9.708;2023-06-10T11:41:08;30.50;41.20
48208;DHT22;33997;53.278;9.708;2023-06-10T11:43:34;31.00;40.40
48208;DHT22;33997;53.278;9.708;2023-06-10T11:45:59;31.30;40.30
48208;DHT22;33997;53.278;9.708;2023-06-10T11:48:25;31.50;38.90
48208;DHT22;33997;53.278;9.708;2023-06-10T11:50:53;31.50;38.50
48208;DHT22;33997;53.278;9.708;2023-06-10T11:53:19;31.80;39.70
48208;DHT22;33997;53.278;9.708;2023-06-10T11:55:46;31.50;37.20
48208;DHT22;33997;53.278;9.708;2023-06-10T11:58:13;31.60;39.50
48208;DHT22;33997;53.278;9.708;2023-06-10T12:00:50;31.60;40.30
48208;DHT22;33997;53.278;9.708;2023-06-10T12:03:16;31.90;39.70
48208;DHT22;33997;53.278;9.708;2023-06-10T12:05:58;32.40;39.50
48208;DHT22;33997;53.278;9.708;2023-06-10T12:08:24;32.40;38.60
48208;DHT22;33997;53.278;9.708;2023-06-10T12:10:50;32.30;39.10
48208;DHT22;33997;53.278;9.708;2023-06-10T12:13:16;31.50;38.30
48208;DHT22;33997;53.278;9.708;2023-06-10T12:15:43;32.00;40.10
48208;DHT22;33997;53.278;9.708;2023-06-10T12:18:19;32.40;40.20
48208;DHT22;33997;53.278;9.708;2023-06-10T12:20:45;32.60;39.70
48208;DHT22;33997;53.278;9.708;2023-06-10T12:23:11;33.00;39.90
48208;DHT22;33997;53.278;9.708;2023-06-10T12:25:37;32.90;38.90
48208;DHT22;33997;53.278;9.708;2023-06-10T12:28:04;33.00;39.50
48208;DHT22;33997;53.278;9.708;2023-06-10T12:30:30;33.10;39.00
48208;DHT22;33997;53.278;9.708;2023-06-10T12:32:56;33.40;40.20
48208;DHT22;33997;53.278;9.708;2023-06-10T12:35:24;33.80;38.00
48208;DHT22;33997;53.278;9.708;2023-06-10T12:38:01;33.40;37.50
48208;DHT22;33997;53.278;9.708;2023-06-10T12:40:28;33.70;39.90
48208;DHT22;33997;53.278;9.708;2023-06-10T12:42:54;33.50;38.00
48208;DHT22;33997;53.278;9.708;2023-06-10T12:50:39;34.20;36.70
48208;DHT22;33997;53.278;9.708;2023-06-10T12:53:05;34.70;37.50
48208;DHT22;33997;53.278;9.708;2023-06-10T12:55:31;34.60;37.70
48208;DHT22;33997;53.278;9.708;2023-06-10T12:57:58;33.90;37.60
48208;DHT22;33997;53.278;9.708;2023-06-10T13:00:24;33.60;37.50
48208;DHT22;33997;53.278;9.708;2023-06-10T13:02:52;33.50;36.40
48208;DHT22;33997;53.278;9.708;2023-06-10T13:05:18;33.10;38.20
48208;DHT22;33997;53.278;9.708;2023-06-10T13:07:45;33.40;36.50
48208;DHT22;33997;53.278;9.708;2023-06-10T13:10:11;33.70;39.60
48208;DHT22;33997;53.278;9.708;2023-06-10T13:12:36;33.80;37.70
48208;DHT22;33997;53.278;9.708;2023-06-10T13:15:02;34.50;38.10
48208;DHT22;33997;53.278;9.708;2023-06-10T13:17:28;34.90;35.80
48208;DHT22;33997;53.278;9.708;2023-06-10T13:19:53;34.20;36.90
48208;DHT22;33997;53.278;9.708;2023-06-10T13:22:19;34.50;35.80
48208;DHT22;33997;53.278;9.708;2023-06-10T13:24:45;34.80;37.30
48208;DHT22;33997;53.278;9.708;2023-06-10T13:27:11;35.20;36.50
48208;DHT22;33997;53.278;9.708;2023-06-10T13:29:39;35.60;36.30
48208;DHT22;33997;53.278;9.708;2023-06-10T13:32:05;36.00;35.80
48208;DHT22;33997;53.278;9.708;2023-06-10T13:34:31;35.70;36.60
48208;DHT22;33997;53.278;9.708;2023-06-10T13:36:56;35.10;33.90
48208;DHT22;33997;53.278;9.708;2023-06-10T13:39:22;35.30;33.60
48208;DHT22;33997;53.278;9.708;2023-06-10T13:41:47;35.80;35.60
48208;DHT22;33997;53.278;9.708;2023-06-10T13:44:13;35.70;34.90
48208;DHT22;33997;53.278;9.708;2023-06-10T13:46:38;34.80;34.50
48208;DHT22;33997;53.278;9.708;2023-06-10T13:49:04;35.40;35.50
48208;DHT22;33997;53.278;9.708;2023-06-10T13:51:29;35.40;34.30
48208;DHT22;33997;53.278;9.708;2023-06-10T13:53:55;36.30;33.20
48208;DHT22;33997;53.278;9.708;2023-06-10T13:56:20;35.70;33.90
48208;DHT22;33997;53.278;9.708;2023-06-10T13:58:46;35.50;33.30
48208;DHT22;33997;53.278;9.708;2023-06-10T14:01:11;34.50;34.60
48208;DHT22;33997;53.278;9.708;2023-06-10T14:03:37;35.90;35.00
48208;DHT22;33997;53.278;9.708;2023-06-10T14:06:02;36.30;34.90
48208;DHT22;33997;53.278;9.708;2023-06-10T14:08:28;36.10;33.20
48208;DHT22;33997;53.278;9.708;2023-06-10T14:10:54;36.00;33.10
48208;DHT22;33997;53.278;9.708;2023-06-10T14:13:19;35.70;34.00
48208;DHT22;33997;53.278;9.708;2023-06-10T14:15:45;36.00;32.70
48208;DHT22;33997;53.278;9.708;2023-06-10T14:18:10;36.80;33.00
48208;DHT22;33997;53.278;9.708;2023-06-10T14:20:36;36.90;31.10
48208;DHT22;33997;53.278;9.708;2023-06-10T14:23:01;37.30;32.90
48208;DHT22;33997;53.278;9.708;2023-06-10T14:25:27;34.40;34.20
48208;DHT22;33997;53.278;9.708;2023-06-10T14:27:52;34.30;35.80
48208;DHT22;33997;53.278;9.708;2023-06-10T14:30:18;35.50;33.30
48208;DHT22;33997;53.278;9.708;2023-06-10T14:32:44;35.50;33.30
48208;DHT22;33997;53.278;9.708;2023-06-10T14:35:09;35.90;32.90
48208;DHT22;33997;53.278;9.708;2023-06-10T14:37:35;36.70;31.30
48208;DHT22;33997;53.278;9.708;2023-06-10T14:40:02;37.40;32.60
48208;DHT22;33997;53.278;9.708;2023-06-10T14:42:28;36.40;31.70
48208;DHT22;33997;53.278;9.708;2023-06-10T14:44:54;36.20;33.40
48208;DHT22;33997;53.278;9.708;2023-06-10T14:47:19;35.70;34.20
48208;DHT22;33997;53.278;9.708;2023-06-10T14:49:45;36.20;31.90
48208;DHT22;33997;53.278;9.708;2023-06-10T14:52:10;36.90;33.50
48208;DHT22;33997;53.278;9.708;2023-06-10T14:54:36;36.90;31.40
48208;DHT22;33997;53.278;9.708;2023-06-10T14:57:01;35.80;31.40
48208;DHT22;33997;53.278;9.708;2023-06-10T14:59:27;35.90;31.50
48208;DHT22;33997;53.278;9.708;2023-06-10T15:01:52;35.90;32.40
48208;DHT22;33997;53.278;9.708;2023-06-10T15:04:18;37.10;32.00
48208;DHT22;33997;53.278;9.708;2023-06-10T15:06:43;36.50;32.70
48208;DHT22;33997;53.278;9.708;2023-06-10T15:09:09;36.80;33.00
48208;DHT22;33997;53.278;9.708;2023-06-10T15:11:35;36.40;31.70
48208;DHT22;33997;53.278;9.708;2023-06-10T15:14:00;36.10;32.10
48208;DHT22;33997;53.278;9.708;2023-06-10T15:16:26;35.40;32.10
48208;DHT22;33997;53.278;9.708;2023-06-10T15:18:51;35.60;33.40
48208;DHT22;33997;53.278;9.708;2023-06-10T15:21:16;36.50;32.60
48208;DHT22;33997;53.278;9.708;2023-06-10T15:23:42;36.60;31.50
48208;DHT22;33997;53.278;9.708;2023-06-10T15:26:07;37.10;30.40
48208;DHT22;33997;53.278;9.708;2023-06-10T15:28:33;36.80;30.60
48208;DHT22;33997;53.278;9.708;2023-06-10T15:30:58;37.00;31.80
48208;DHT22;33997;53.278;9.708;2023-06-10T15:33:24;36.00;31.20
48208;DHT22;33997;53.278;9.708;2023-06-10T15:35:50;36.20;31.90
48208;DHT22;33997;53.278;9.708;2023-06-10T15:38:17;36.30;30.80
48208;DHT22;33997;53.278;9.708;2023-06-10T15:40:43;37.20;30.60
48208;DHT22;33997;53.278;9.708;2023-06-10T15:43:08;36.00;30.40
48208;DHT22;33997;53.278;9.708;2023-06-10T15:45:34;36.00;33.10